Time;durP1;ratioP1;P1;durP2;ratioP2;P2;SDS_P1;SDS_P2;PMS_P1;PMS_P2;Temp;Humidity;BMP_temperature;BMP_pressure;BME280_temperature;BME280_humidity;BME280_pressure;Samples;Min_cycle;Max_cycle;Signal;HPM_P1;HPM_P2
2022/09/19 00:01:28;;;;;;;7.50;5.38;;;;;;;17.52;68.68;99410.59;5055782;28;20048;-77
2022/09/19 00:04:05;;;;;;;7.72;5.65;;;;;;;17.51;68.96;99410.78;5056082;28;20041;-78
2022/09/19 00:06:35;;;;;;;9.93;5.07;;;;;;;17.42;68.91;99409.94;5056045;28;20044;-77
2022/09/19 00:09:02;;;;;;;8.35;5.80;;;;;;;17.45;69.08;99414.97;5055885;28;20147;-77
2022/09/19 00:11:28;;;;;;;8.35;5.88;;;;;;;17.35;68.75;99411.59;5072226;28;20045;-79
2022/09/19 00:13:57;;;;;;;9.60;5.55;;;;;;;17.34;69.13;99404.47;5055388;28;20043;-78
2022/09/19 00:16:26;;;;;;;;;;;;;;;17.36;68.83;99421.38;5073680;28;20076;-77
2022/09/19 00:18:53;;;;;;;9.65;5.80;;;;;;;17.33;68.94;99421.72;5055555;28;20018;-78
2022/09/19 00:21:24;;;;;;;8.93;5.80;;;;;;;17.35;68.98;99422.41;5038941;28;20450;-77
2022/09/19 00:26:35;;;;;;;13.77;6.03;;;;;;;17.28;69.17;99429.47;5072693;28;20135;-78
2022/09/19 00:29:02;;;;;;;7.13;5.90;;;;;;;17.19;69.20;99431.31;5073577;28;20075;-77
2022/09/19 00:31:28;;;;;;;8.73;5.22;;;;;;;17.16;69.42;99429.75;5071851;28;20040;-76
2022/09/19 00:33:54;;;;;;;6.55;5.55;;;;;;;17.16;69.20;99437.88;5072185;28;20067;-77
2022/09/19 00:36:21;;;;;;;7.13;5.40;;;;;;;17.19;69.49;99432.16;5071943;28;20063;-78
2022/09/19 00:38:48;;;;;;;9.07;5.30;;;;;;;17.19;69.25;99426.75;5055367;28;20044;-79
2022/09/19 00:41:21;;;;;;;11.90;6.32;;;;;;;17.19;69.00;99426.75;5038786;28;20050;-78
2022/09/19 00:43:59;;;;;;;7.78;5.65;;;;;;;17.28;68.98;99429.47;5038984;28;20040;-77
2022/09/19 00:46:27;;;;;;;7.38;5.82;;;;;;;17.29;68.82;99428.44;5055257;28;20040;-78
2022/09/19 00:49:14;;;;;;;7.57;5.40;;;;;;;17.31;68.78;99440.78;5054939;28;20064;-77
2022/09/19 00:51:46;;;;;;;9.68;6.35;;;;;;;17.30;68.64;99427.44;5038423;28;20048;-78
2022/09/19 00:54:17;;;;;;;8.38;5.63;;;;;;;17.24;68.63;99429.78;5071796;28;20526;-78
2022/09/19 00:56:51;;;;;;;7.35;5.60;;;;;;;17.24;68.59;99429.78;5071782;28;20044;-78
2022/09/19 00:59:19;;;;;;;8.95;5.72;;;;;;;17.29;68.87;99444.66;5054996;28;20051;-78
2022/09/19 01:01:48;;;;;;;9.30;5.60;;;;;;;17.23;68.55;99444.31;5071582;28;20055;-79
2022/09/19 01:04:15;;;;;;;;;;;;;;;17.24;68.34;99446.00;5072038;28;20059;-77
2022/09/19 01:07:01;;;;;;;5.78;5.05;;;;;;;17.16;68.20;99440.56;5055068;28;19927;-77
2022/09/19 01:09:49;;;;;;;15.43;5.05;;;;;;;17.24;68.37;99446.00;5055085;28;20091;-79
2022/09/19 01:12:32;;;;;;;7.07;4.90;;;;;;;17.24;68.07;99446.00;5071695;28;20063;-78
2022/09/19 01:15:12;;;;;;;8.30;5.00;;;;;;;17.27;67.83;99447.53;5038239;28;20064;-78
2022/09/19 01:17:46;;;;;;;7.63;4.38;;;;;;;17.29;67.99;99447.34;5054925;28;20091;-79
2022/09/19 01:20:43;;;;;;;8.55;4.53;;;;;;;17.23;67.54;99449.72;5038260;28;20041;-78
2022/09/19 01:23:39;;;;;;;8.27;4.80;;;;;;;17.24;67.43;99450.56;5071357;28;20123;-78
2022/09/19 01:26:25;;;;;;;6.43;5.15;;;;;;;17.30;67.39;99452.63;5038048;28;20052;-77
2022/09/19 01:29:07;;;;;;;5.90;4.72;;;;;;;17.35;66.98;99447.56;5074680;28;20043;-78
2022/09/19 01:31:38;;;;;;;5.60;4.93;;;;;;;17.39;67.29;99442.69;5075437;28;20044;-77
2022/09/19 01:34:21;;;;;;;8.27;5.03;;;;;;;17.44;67.30;99433.06;5058545;28;20067;-78
2022/09/19 01:37:00;;;;;;;6.90;4.68;;;;;;;17.54;66.83;99451.84;5058470;28;20064;-77
2022/09/19 01:39:29;;;;;;;11.23;4.97;;;;;;;17.58;66.31;99444.25;5058421;28;20056;-77
2022/09/19 01:42:01;;;;;;;9.68;4.72;;;;;;;17.58;65.94;99445.09;5075107;28;20053;-78
2022/09/19 01:44:30;;;;;;;7.57;4.63;;;;;;;17.51;66.12;99440.50;5075058;28;20040;-77
2022/09/19 01:47:14;;;;;;;9.23;4.65;;;;;;;17.61;66.02;99446.63;5041991;28;20044;-77
2022/09/19 01:50:05;;;;;;;6.22;4.95;;;;;;;17.65;65.67;99448.81;5041778;28;20051;-76
2022/09/19 01:53:16;;;;;;;7.75;4.40;;;;;;;17.62;65.60;99451.84;5074832;28;20410;-77
2022/09/19 01:56:36;;;;;;;9.63;4.43;;;;;;;17.58;65.70;99458.59;5075142;28;20044;-77
2022/09/19 01:59:09;;;;;;;4.90;4.40;;;;;;;17.52;65.43;99447.59;5057374;28;20135;-78
2022/09/19 02:01:38;;;;;;;7.50;4.30;;;;;;;17.60;65.56;99456.59;5041636;28;20044;-77
2022/09/19 02:04:18;;;;;;;8.57;4.22;;;;;;;17.66;65.22;99455.91;5058385;28;20048;-77
2022/09/19 02:06:48;;;;;;;6.75;4.18;;;;;;;17.56;64.94;99449.81;5058366;28;20044;-78
2022/09/19 02:09:48;;;;;;;8.52;4.60;;;;;;;17.65;64.89;99450.69;5074769;28;20044;-77
2022/09/19 02:12:20;;;;;;;6.45;4.43;;;;;;;17.69;64.94;99460.16;5074667;28;20048;-77
2022/09/19 02:14:54;;;;;;;8.65;4.50;;;;;;;17.74;64.68;99463.19;5074704;28;20071;-78
2022/09/19 02:17:32;;;;;;;10.90;4.50;;;;;;;17.86;64.62;99469.16;5086664;28;20083;-77
2022/09/19 02:20:10;;;;;;;13.15;4.13;;;;;;;17.92;64.64;99465.81;5074289;28;20052;-79
2022/09/19 02:22:48;;;;;;;10.18;4.03;;;;;;;17.98;64.10;99470.56;5057978;28;20417;-77
2022/09/19 02:25:20;;;;;;;8.00;5.03;;;;;;;17.90;63.94;99455.16;5057859;28;20041;-77
2022/09/19 02:28:07;;;;;;;7.55;4.30;;;;;;;17.97;64.11;99463.44;5041271;28;20036;-77
2022/09/19 02:30:35;;;;;;;7.35;4.50;;;;;;;17.98;63.68;99454.34;5057246;28;20056;-77
2022/09/19 02:33:07;;;;;;;6.17;4.10;;;;;;;17.91;63.39;99448.75;5057214;28;20045;-79
2022/09/19 02:35:54;;;;;;;6.22;4.43;;;;;;;17.91;63.12;99458.72;5073842;28;20503;-77
2022/09/19 02:38:30;;;;;;;7.00;3.97;;;;;;;17.91;63.54;99464.97;5074688;28;20036;-78
2022/09/19 02:41:04;;;;;;;8.50;4.90;;;;;;;17.80;63.47;99467.16;5039809;28;20624;-78
2022/09/19 02:43:46;;;;;;;9.95;4.30;;;;;;;17.76;63.75;99460.38;5057290;28;20048;-77
2022/09/19 02:46:18;;;;;;;7.15;4.45;;;;;;;17.80;63.58;99459.88;5057144;28;20474;-78
2022/09/19 02:49:00;;;;;;;12.70;4.82;;;;;;;17.81;63.43;99463.41;5073776;28;20040;-78
2022/09/19 02:51:37;;;;;;;10.95;4.65;;;;;;;17.79;63.80;99470.84;5073920;28;20097;-77
2022/09/19 02:54:18;;;;;;;11.57;5.00;;;;;;;17.79;63.36;99470.84;5040834;28;20056;-84
2022/09/19 02:56:47;;;;;;;9.65;4.28;;;;;;;17.70;63.13;99468.09;5057459;28;20480;-78
2022/09/19 02:59:21;;;;;;;19.48;4.60;;;;;;;17.65;63.00;99473.16;5073719;28;20044;-80
2022/09/19 03:02:26;;;;;;;9.45;4.25;;;;;;;17.64;63.15;99468.78;5074001;28;20045;-77
2022/09/19 03:04:59;;;;;;;9.15;4.45;;;;;;;17.57;63.15;99478.56;5057218;28;20563;-79
2022/09/19 03:07:36;;;;;;;8.88;4.25;;;;;;;17.51;63.18;99445.91;5092752;28;20048;-78
2022/09/19 03:10:13;;;;;;;10.80;4.50;;;;;;;17.67;62.82;99471.13;5059070;28;20131;-78
2022/09/19 03:13:11;;;;;;;15.30;4.65;;;;;;;17.61;63.21;99458.28;5059290;28;20048;-78
2022/09/19 03:15:47;;;;;;;13.65;5.18;;;;;;;17.74;62.85;99474.00;5058907;28;20036;-78
2022/09/19 03:18:17;;;;;;;10.15;4.30;;;;;;;17.79;62.52;99477.13;5063128;28;20064;-79
2022/09/19 03:20:53;;;;;;;16.40;3.95;;;;;;;17.82;62.00;99475.91;5050136;28;20097;-80
2022/09/19 03:23:26;;;;;;;12.38;4.22;;;;;;;17.86;62.11;99479.97;5058894;28;20044;-78
2022/09/19 03:25:52;;;;;;;7.65;4.20;;;;;;;17.90;61.98;99475.94;5076328;28;20055;-78
2022/09/19 03:28:20;;;;;;;7.63;3.85;;;;;;;17.94;61.68;99485.41;5076053;28;20052;-87
2022/09/19 03:30:48;;;;;;;8.18;4.10;;;;;;;18.08;61.56;99481.19;5092657;28;20039;-80
2022/09/19 03:33:16;;;;;;;11.02;3.30;;;;;;;18.13;61.23;99495.94;5075712;28;20183;-85
2022/09/19 03:35:44;;;;;;;7.80;3.97;;;;;;;18.31;60.85;99489.50;5058823;28;20047;-79
2022/09/19 03:38:11;;;;;;;7.75;3.92;;;;;;;18.41;60.04;99496.44;5067559;28;20291;-81
2022/09/19 03:40:37;;;;;;;9.82;4.28;;;;;;;18.44;59.56;99497.97;5056103;28;20435;-80
2022/09/19 03:43:06;;;;;;;9.30;3.50;;;;;;;18.44;59.12;99492.56;5056309;28;20377;-79
2022/09/19 03:45:32;;;;;;;7.03;3.75;;;;;;;18.51;59.21;99509.81;5089527;28;20040;-85
2022/09/19 03:47:58;;;;;;;5.90;3.90;;;;;;;18.50;59.40;99497.28;5072909;28;20044;-80
2022/09/19 03:50:26;;;;;;;5.82;3.72;;;;;;;18.64;59.19;99515.53;5082617;28;20384;-80
2022/09/19 03:53:08;;;;;;;8.55;4.05;;;;;;;18.66;58.50;99513.53;5055757;28;20137;-78
2022/09/19 03:55:37;;;;;;;10.25;3.90;;;;;;;18.57;57.84;99503.69;5055515;28;20054;-79
2022/09/19 03:58:04;;;;;;;14.50;4.18;;;;;;;18.60;58.70;99506.06;5055907;28;20452;-80
2022/09/19 04:00:31;;;;;;;9.68;3.72;;;;;;;18.64;58.36;99514.69;5039162;28;20043;-85
2022/09/19 04:02:57;;;;;;;11.95;3.70;;;;;;;18.78;58.39;99511.34;5055616;28;20044;-82
2022/09/19 04:05:26;;;;;;;6.68;3.80;;;;;;;18.95;58.30;99509.44;5039962;28;20075;-77
2022/09/19 04:07:52;;;;;;;10.13;3.45;;;;;;;19.11;57.95;99512.13;5072231;28;20460;-78
2022/09/19 04:10:18;;;;;;;9.68;3.75;;;;;;;19.21;57.90;99511.06;5072180;28;20044;-80
2022/09/19 04:12:45;;;;;;;8.45;4.15;;;;;;;19.27;57.32;99511.22;5038892;28;20036;-80
2022/09/19 04:15:11;;;;;;;11.05;4.22;;;;;;;19.51;57.17;99504.00;5071775;28;20040;-80
2022/09/19 04:17:42;;;;;;;11.40;4.18;;;;;;;19.80;57.24;99511.53;5072550;28;20052;-83
2022/09/19 04:20:13;;;;;;;14.02;4.25;;;;;;;20.06;56.46;99514.75;5055849;28;20041;-79
2022/09/19 04:22:59;;;;;;;7.28;3.55;;;;;;;20.33;56.05;99513.38;5041168;28;20044;-79
2022/09/19 04:25:46;;;;;;;9.82;3.38;;;;;;;20.39;55.04;99519.97;5073115;28;20048;-80
2022/09/19 04:28:20;;;;;;;21.20;4.65;;;;;;;20.55;54.78;99528.00;5071849;28;20518;-79
2022/09/19 04:30:46;;;;;;;8.40;3.70;;;;;;;20.65;54.14;99530.47;5053583;28;20044;-82
2022/09/19 04:33:14;;;;;;;7.53;3.85;;;;;;;20.64;53.52;99509.75;5037698;28;20456;-79
2022/09/19 04:35:42;;;;;;;12.48;4.03;;;;;;;20.89;53.64;99523.97;5069957;28;20047;-80
2022/09/19 04:38:12;;;;;;;8.70;3.60;;;;;;;20.95;53.52;99536.81;5054695;28;20094;-81
2022/09/19 04:40:41;;;;;;;6.68;3.67;;;;;;;21.04;52.93;99532.97;5072310;28;20075;-78
2022/09/19 04:43:09;;;;;;;13.00;4.00;;;;;;;21.42;53.26;99527.50;5071124;28;20089;-79
2022/09/19 04:45:39;;;;;;;9.13;4.03;;;;;;;21.71;51.67;99548.41;5054606;28;20044;-80
2022/09/19 04:48:17;;;;;;;11.90;3.58;;;;;;;21.77;50.89;99535.91;5055056;28;20040;-80
2022/09/19 04:50:45;;;;;;;5.80;3.53;;;;;;;21.86;50.81;99536.66;5071967;28;20143;-80
2022/09/19 04:53:13;;;;;;;9.40;3.95;;;;;;;21.78;50.53;99543.06;5055016;28;20036;-79
2022/09/19 04:55:40;;;;;;;7.50;3.35;;;;;;;21.78;51.02;99545.78;5073059;28;20064;-79
2022/09/19 04:58:07;;;;;;;16.02;3.42;;;;;;;21.83;51.08;99540.59;5071756;28;20090;-78
2022/09/19 05:00:39;;;;;;;9.82;3.67;;;;;;;21.94;50.81;99555.59;5054634;28;20044;-79
2022/09/19 05:03:11;;;;;;;9.95;3.45;;;;;;;21.74;50.65;99542.59;5054082;28;20044;-81
2022/09/19 05:05:44;;;;;;;9.18;3.33;;;;;;;21.72;50.43;99535.63;5071575;28;20097;-79
2022/09/19 05:08:15;;;;;;;18.50;3.90;;;;;;;21.78;50.01;99548.50;5054867;28;20044;-78
2022/09/19 05:10:42;;;;;;;9.35;3.35;;;;;;;21.73;50.68;99545.47;5054746;28;20484;-80
2022/09/19 05:13:09;;;;;;;10.00;3.50;;;;;;;21.61;50.31;99544.28;5071338;28;20055;-80
2022/09/19 05:15:40;;;;;;;11.85;3.20;;;;;;;21.54;50.66;99549.63;5071451;28;20055;-78
2022/09/19 05:18:06;;;;;;;9.38;3.33;;;;;;;21.66;50.64;99558.16;5055013;28;20162;-79
2022/09/19 05:20:35;;;;;;;15.13;3.67;;;;;;;21.69;50.42;99546.88;5071118;28;20154;-79
2022/09/19 05:23:01;;;;;;;12.77;3.85;;;;;;;21.66;50.18;99566.31;5071266;28;20118;-79
2022/09/19 05:25:29;;;;;;;5.78;3.33;;;;;;;21.70;49.97;99570.34;5071236;28;20052;-80
2022/09/19 05:28:05;;;;;;;9.02;3.50;;;;;;;21.81;50.01;99568.00;5038083;28;20098;-79
2022/09/19 05:30:37;;;;;;;5.95;3.30;;;;;;;21.94;50.14;99564.59;5054949;28;20047;-78
2022/09/19 05:33:06;;;;;;;11.07;3.15;;;;;;;22.21;49.59;99573.94;5054378;28;20135;-79
2022/09/19 05:35:40;;;;;;;12.05;3.60;;;;;;;22.44;49.17;99571.03;5054585;28;20561;-79
2022/09/19 05:38:36;;;;;;;12.07;3.30;;;;;;;22.64;48.87;99567.66;5058320;28;20052;-79
2022/09/19 05:41:24;;;;;;;17.60;3.83;;;;;;;22.78;48.13;99558.56;5070715;28;20135;-80
2022/09/19 05:43:55;;;;;;;13.30;3.40;;;;;;;23.05;48.15;99556.09;5054884;28;20196;-81
2022/09/19 05:46:23;;;;;;;12.35;3.50;;;;;;;23.28;46.60;99559.41;5037891;28;20533;-80
2022/09/19 05:48:52;;;;;;;18.00;4.13;;;;;;;23.30;46.29;99560.06;5071111;28;20044;-81
2022/09/19 05:51:17;;;;;;;16.63;3.80;;;;;;;23.30;45.86;99548.31;5054230;28;20036;-82
2022/09/19 05:53:52;;;;;;;12.02;3.80;;;;;;;23.32;45.87;99547.06;5054342;28;20037;-81
2022/09/19 05:56:49;;;;;;;12.52;3.50;;;;;;;23.48;45.12;99559.53;5078885;28;20111;-79
2022/09/19 05:59:16;;;;;;;9.15;3.55;;;;;;;23.47;44.80;99569.63;5071480;28;20048;-80
2022/09/19 06:01:44;;;;;;;14.07;3.88;;;;;;;23.60;44.34;99562.53;5054704;28;20105;-80
2022/09/19 06:04:25;;;;;;;8.43;3.50;;;;;;;23.66;44.18;99553.56;5039716;28;20082;-80
2022/09/19 06:06:52;;;;;;;6.20;3.17;;;;;;;23.69;43.89;99554.00;5054272;28;20135;-80
2022/09/19 06:09:18;;;;;;;11.25;3.60;;;;;;;23.66;43.93;99550.84;5070794;28;20060;-80
2022/09/19 06:11:44;;;;;;;7.28;3.40;;;;;;;23.76;43.08;99567.69;5053979;28;20074;-80
2022/09/19 06:14:17;;;;;;;12.25;3.80;;;;;;;23.87;43.43;99569.00;5055546;28;20135;-79
2022/09/19 06:16:47;;;;;;;13.48;3.10;;;;;;;23.90;42.46;99558.53;5057548;28;20139;-81
2022/09/19 06:19:35;;;;;;;8.45;3.25;;;;;;;24.05;42.84;99555.63;5057818;28;20040;-81
2022/09/19 06:22:08;;;;;;;5.35;3.15;;;;;;;24.23;43.47;99566.00;5036257;28;20065;-79
2022/09/19 06:24:36;;;;;;;4.13;2.83;;;;;;;24.31;42.99;99571.25;5036887;28;20156;-79
2022/09/19 06:27:04;;;;;;;11.48;3.97;;;;;;;24.55;42.52;99567.13;5036935;28;20061;-79
2022/09/19 06:29:30;;;;;;;11.52;3.50;;;;;;;24.78;42.31;99564.00;5036749;28;20048;-79
2022/09/19 06:32:14;;;;;;;13.35;4.03;;;;;;;24.92;42.02;99565.69;5052811;28;20053;-79
2022/09/19 06:34:43;;;;;;;9.55;3.38;;;;;;;25.16;41.30;99568.84;5053429;28;20090;-79
2022/09/19 06:37:11;;;;;;;15.40;3.42;;;;;;;25.41;40.47;99571.78;5053018;28;20049;-79
2022/09/19 06:39:38;;;;;;;15.38;3.70;;;;;;;25.53;40.85;99558.28;5036621;28;20049;-79
2022/09/19 06:42:25;;;;;;;9.38;3.10;;;;;;;25.80;38.87;99564.53;5036014;28;20452;-79
2022/09/19 06:45:10;;;;;;;22.63;3.97;;;;;;;25.92;37.60;99574.63;5053125;28;20543;-80
2022/09/19 06:48:15;;;;;;;11.68;3.38;;;;;;;25.83;38.94;99558.63;5036241;28;20052;-79
2022/09/19 06:50:54;;;;;;;7.88;3.30;;;;;;;25.91;39.30;99563.84;5036227;28;20055;-80
2022/09/19 06:53:21;;;;;;;11.17;3.80;;;;;;;25.90;38.28;99560.28;5073744;28;20063;-80
2022/09/19 06:55:52;;;;;;;9.10;3.38;;;;;;;26.00;38.53;99550.78;5073220;28;20061;-79
2022/09/19 06:58:21;;;;;;;8.30;2.60;;;;;;;26.20;37.40;99548.75;5073408;28;20044;-80
2022/09/19 07:00:49;;;;;;;8.10;3.15;;;;;;;26.28;36.75;99534.78;5073540;28;20048;-80
2022/09/19 07:03:17;;;;;;;13.17;3.33;;;;;;;26.23;36.97;99542.84;5040563;28;20051;-80
2022/09/19 07:05:53;;;;;;;9.75;2.70;;;;;;;26.34;37.08;99539.41;5041654;28;20040;-80
2022/09/19 07:08:21;;;;;;;14.13;3.25;;;;;;;26.45;37.45;99546.09;5073481;28;20072;-79
2022/09/19 07:10:49;;;;;;;17.30;3.20;;;;;;;26.60;37.60;99532.09;5073185;28;20090;-79
2022/09/19 07:13:16;;;;;;;16.02;3.10;;;;;;;26.65;37.50;99545.97;5072933;28;20086;-80
2022/09/19 07:15:43;;;;;;;13.63;3.97;;;;;;;26.85;37.87;99546.69;5073258;28;20079;-80
2022/09/19 07:18:13;;;;;;;15.60;3.17;;;;;;;27.01;37.14;99530.72;5039941;28;20467;-81
2022/09/19 07:20:41;;;;;;;8.43;2.95;;;;;;;27.21;36.44;99534.13;5056458;28;20048;-79
2022/09/19 07:23:23;;;;;;;16.15;3.35;;;;;;;27.36;35.51;99533.75;5058787;28;20052;-81
2022/09/19 07:25:55;;;;;;;6.65;3.30;;;;;;;27.46;34.98;99541.47;5072025;28;20127;-80
2022/09/19 07:28:21;;;;;;;8.57;3.22;;;;;;;27.40;35.15;99529.50;5039832;28;20044;-80
2022/09/19 07:30:49;;;;;;;7.10;2.63;;;;;;;27.31;35.06;99528.97;5073326;28;20109;-80
2022/09/19 07:33:19;;;;;;;9.02;2.58;;;;;;;27.52;35.89;99535.06;5056236;28;20040;-77
2022/09/19 07:35:47;;;;;;;11.40;2.75;;;;;;;27.78;34.80;99548.50;5072819;28;20491;-78
2022/09/19 07:38:18;;;;;;;10.05;2.53;;;;;;;27.87;34.17;99532.59;5056434;28;20471;-79
2022/09/19 07:41:07;;;;;;;9.05;2.50;;;;;;;27.85;33.30;99545.69;5017851;28;20139;-78
2022/09/19 07:43:50;;;;;;;18.23;2.70;;;;;;;27.99;33.00;99538.13;5017171;28;20099;-79
2022/09/19 07:46:34;;;;;;;17.45;2.70;;;;;;;27.98;33.25;99540.03;5035092;28;20041;-79
2022/09/19 07:49:38;;;;;;;18.30;2.33;;;;;;;28.01;32.98;99528.56;5034992;28;20107;-78
2022/09/19 07:52:29;;;;;;;10.23;2.40;;;;;;;28.05;32.31;99539.94;5018475;28;20128;-77
2022/09/19 07:54:55;;;;;;;3.78;2.08;;;;;;;28.00;32.07;99526.91;5012899;28;20187;-79
2022/09/19 07:57:22;;;;;;;10.88;2.75;;;;;;;28.29;31.89;99540.88;5030312;28;20037;-77
2022/09/19 07:59:48;;;;;;;8.35;2.45;;;;;;;28.43;32.12;99541.53;5033393;28;20048;-77
2022/09/19 08:02:16;;;;;;;10.25;2.22;;;;;;;28.32;31.00;99543.16;5015035;28;20548;-79
2022/09/19 08:04:44;;;;;;;6.28;2.00;;;;;;;28.10;31.32;99537.34;4982342;28;20055;-78
2022/09/19 08:07:09;;;;;;;10.65;2.30;;;;;;;28.25;30.95;99546.00;5014926;28;20049;-77
2022/09/19 08:09:38;;;;;;;3.90;1.98;;;;;;;28.10;29.73;99523.59;5014865;28;20432;-78
2022/09/19 08:12:25;;;;;;;10.93;2.17;;;;;;;28.14;30.43;99535.81;5052710;28;20124;-77
2022/09/19 08:15:09;;;;;;;5.43;1.85;;;;;;;27.98;30.58;99515.31;5092966;28;20278;-78
2022/09/19 08:17:38;;;;;;;4.32;2.00;;;;;;;28.15;30.72;99539.38;5092152;28;20419;-77
2022/09/19 08:20:05;;;;;;;9.07;1.95;;;;;;;28.16;30.47;99533.66;5075178;28;20517;-77
2022/09/19 08:22:35;;;;;;;10.18;2.30;;;;;;;28.23;31.22;99531.66;5075692;28;20043;-81
2022/09/19 08:25:07;;;;;;;5.65;2.50;;;;;;;28.59;31.14;99535.38;5075295;28;20052;-81
2022/09/19 08:27:34;;;;;;;8.75;2.20;;;;;;;28.72;30.81;99518.66;5075043;28;20067;-77
2022/09/19 08:30:00;;;;;;;7.72;2.38;;;;;;;28.96;30.10;99525.03;5093106;28;20039;-80
2022/09/19 08:32:26;;;;;;;7.55;2.72;;;;;;;29.25;30.07;99528.75;5075030;28;20044;-79
2022/09/19 08:34:53;;;;;;;8.10;2.63;;;;;;;29.41;30.11;99521.72;5075299;28;20071;-77
2022/09/19 08:37:21;;;;;;;10.30;2.80;;;;;;;29.50;29.72;99530.44;5090963;28;20040;-77
2022/09/19 08:42:44;;;;;;;11.43;2.80;;;;;;;29.65;29.86;99514.25;5054926;28;20107;-79
2022/09/19 08:45:42;;;;;;;13.32;3.10;;;;;;;30.03;30.00;99523.00;5073818;28;20048;-78
2022/09/19 08:48:17;;;;;;;11.48;4.32;;;;;;;30.07;29.10;99519.50;5057952;28;20040;-84
2022/09/19 08:50:53;;;;;;;10.27;3.60;;;;;;;30.00;29.26;99519.66;5087750;28;20036;-79
2022/09/19 08:53:27;;;;;;;9.95;3.67;;;;;;;30.08;29.30;99515.66;5081340;28;20529;-79
2022/09/19 08:55:56;;;;;;;7.82;3.60;;;;;;;30.10;29.18;99513.50;5091202;28;20101;-79
2022/09/19 08:58:24;;;;;;;20.65;4.05;;;;;;;30.40;29.34;99501.41;5057295;28;20040;-78
2022/09/19 09:01:15;;;;;;;13.50;3.65;;;;;;;30.45;28.56;99505.09;5077778;28;20163;-79
2022/09/19 09:04:25;;;;;;;11.82;3.47;;;;;;;30.54;28.77;99499.16;5090123;28;20040;-77
2022/09/19 09:07:22;;;;;;;13.27;3.40;;;;;;;30.82;28.66;99509.34;5088245;28;20086;-78
2022/09/19 09:10:07;;;;;;;29.52;5.55;;;;;;;30.88;28.20;99508.31;5074246;28;20063;-77
2022/09/19 09:13:21;;;;;;;10.98;4.05;;;;;;;30.80;27.23;99494.94;5074029;28;20044;-78
2022/09/19 09:16:09;;;;;;;5.65;3.25;;;;;;;31.06;26.15;99497.00;5074091;28;20083;-77
2022/09/19 09:19:33;;;;;;;10.65;3.40;;;;;;;31.03;26.89;99505.81;5074468;28;20117;-76
2022/09/19 09:22:11;;;;;;;13.48;3.55;;;;;;;31.16;27.26;99515.66;5053601;28;20044;-78
2022/09/19 09:24:51;;;;;;;13.60;3.50;;;;;;;31.29;26.21;99503.41;5074396;28;20052;-80
2022/09/19 09:27:41;;;;;;;21.08;3.90;;;;;;;31.28;27.38;99502.56;5075754;28;20503;-77
2022/09/19 09:30:17;;;;;;;9.93;3.30;;;;;;;31.33;26.76;99510.13;5058352;28;20198;-79
2022/09/19 09:32:56;;;;;;;;;;;;;;;31.61;26.59;99509.97;5060487;28;20044;-80
2022/09/19 09:35:37;;;;;;;11.45;3.70;;;;;;;31.58;25.42;99516.00;5090962;28;19973;-77
2022/09/19 09:38:16;;;;;;;9.75;3.53;;;;;;;31.63;26.68;99505.03;5090954;28;20096;-75
2022/09/19 09:44:16;;;;;;;6.68;2.78;;;;;;;31.95;25.25;99506.25;5090590;28;20036;-75
2022/09/19 09:46:49;;;;;;;9.85;3.08;;;;;;;31.84;25.48;99527.38;5090859;28;20040;-77
2022/09/19 09:49:21;;;;;;;7.13;2.00;;;;;;;31.68;23.97;99518.91;5093133;28;20083;-76
2022/09/19 09:51:58;;;;;;;5.18;1.70;;;;;;;31.62;22.50;99525.44;5078073;28;20032;-76
2022/09/19 09:57:56;;;;;;;9.65;1.88;;;;;;;31.85;23.45;99524.38;5078245;28;20040;-75
2022/09/19 10:03:39;;;;;;;6.25;1.80;;;;;;;32.04;22.41;99516.59;5077630;28;20040;-76
2022/09/19 10:06:30;;;;;;;9.65;1.77;;;;;;;32.23;22.17;99513.47;5094572;28;20055;-76
2022/09/19 10:09:02;;;;;;;5.43;1.80;;;;;;;32.23;22.09;99514.28;5061434;28;20043;-76
2022/09/19 10:11:52;;;;;;;7.78;2.00;;;;;;;32.19;22.33;99507.63;5094574;28;20044;-77
2022/09/19 10:14:23;;;;;;;7.15;2.33;;;;;;;32.38;21.69;99506.19;5086436;28;20044;-77
2022/09/19 10:16:56;;;;;;;7.90;2.22;;;;;;;32.73;21.98;99506.78;5074087;28;20044;-76
2022/09/19 10:19:35;;;;;;;5.65;1.70;;;;;;;32.94;22.12;99502.25;5041921;28;20036;-76
2022/09/19 10:22:01;;;;;;;6.18;1.90;;;;;;;32.89;21.23;99514.13;5040702;28;20415;-78
2022/09/19 10:24:46;;;;;;;15.55;2.65;;;;;;;32.99;20.55;99511.47;5074369;28;20052;-77
2022/09/19 10:27:33;;;;;;;13.98;1.70;;;;;;;32.85;21.23;99496.38;5074564;28;20094;-76
2022/09/19 10:30:25;;;;;;;5.85;1.60;;;;;;;33.19;21.25;99504.38;5058577;28;20052;-77
2022/09/19 10:32:54;;;;;;;5.68;1.58;;;;;;;33.43;20.74;99500.06;5057608;28;20048;-76
2022/09/19 10:35:41;;;;;;;;;;;;;;;33.47;20.47;99505.94;5060523;28;20055;-77
2022/09/19 10:38:13;;;;;;;6.53;1.52;;;;;;;33.64;20.01;99505.78;5075013;28;20300;-75
2022/09/19 10:40:59;;;;;;;8.70;1.65;;;;;;;33.79;19.33;99501.13;5056816;28;20495;-76
2022/09/19 10:43:54;;;;;;;4.88;1.70;;;;;;;33.87;19.63;99505.28;5059070;28;20043;-76
2022/09/19 10:46:35;;;;;;;4.72;1.70;;;;;;;33.87;20.01;99510.84;5054818;28;20040;-76
2022/09/19 10:49:22;;;;;;;1.65;1.55;;;;;;;33.54;19.86;99504.59;5093062;28;20040;-77
2022/09/19 10:51:51;;;;;;;4.70;1.70;;;;;;;33.57;19.98;99501.28;5076777;28;20040;-76
2022/09/19 10:54:24;;;;;;;3.90;1.65;;;;;;;33.84;19.81;99494.75;5093424;28;20060;-76
2022/09/19 10:56:51;;;;;;;4.57;1.77;;;;;;;34.14;19.84;99502.34;5060307;28;20048;-76
2022/09/19 10:59:38;;;;;;;3.95;1.60;;;;;;;34.35;19.14;99506.00;5094272;28;20051;-77
2022/09/19 11:02:27;;;;;;;5.00;1.60;;;;;;;34.03;19.01;99498.72;5077778;28;20055;-77
2022/09/19 11:05:02;;;;;;;9.07;1.95;;;;;;;34.58;19.57;99503.84;5076536;28;20055;-76
2022/09/19 11:07:48;;;;;;;5.22;1.48;;;;;;;34.80;18.69;99493.28;5093756;28;20062;-77
2022/09/19 11:10:38;;;;;;;10.10;1.80;;;;;;;34.94;18.86;99497.19;5076928;28;20050;-76
2022/09/19 11:13:28;;;;;;;8.07;1.80;;;;;;;34.93;18.80;99495.50;5079211;28;20067;-75
2022/09/19 11:16:29;;;;;;;7.82;1.85;;;;;;;35.26;18.94;99493.25;5093274;28;20090;-76
2022/09/19 11:18:59;;;;;;;8.55;1.58;;;;;;;35.36;18.99;99481.28;5093306;28;20047;-75
2022/09/19 11:22:16;;;;;;;4.75;1.63;;;;;;;35.44;18.73;99498.22;5093294;28;20052;-75
2022/09/19 11:24:45;;;;;;;;;;;;;;;35.29;18.56;99498.25;5081751;28;20086;-74
2022/09/19 11:27:27;;;;;;;7.90;1.65;;;;;;;35.43;18.20;99498.47;5076154;28;19920;-76
2022/09/19 11:30:06;;;;;;;6.20;1.70;;;;;;;35.71;18.02;99489.50;5076080;28;20047;-75
2022/09/19 11:32:44;;;;;;;10.35;1.67;;;;;;;36.23;17.93;99487.31;5059726;28;20036;-77
2022/09/19 11:35:26;;;;;;;12.57;1.63;;;;;;;36.27;17.54;99485.63;5076634;28;20562;-76
2022/09/19 11:38:08;;;;;;;4.93;1.80;;;;;;;36.37;16.93;99484.69;5059554;28;20337;-76
2022/09/19 11:40:59;;;;;;;3.92;1.60;;;;;;;36.34;17.21;99486.13;5093125;28;20136;-76
2022/09/19 11:43:45;;;;;;;4.47;1.38;;;;;;;36.41;16.69;99494.97;5076228;28;20052;-76
2022/09/19 11:46:42;;;;;;;3.90;1.35;;;;;;;36.47;16.77;99485.47;5092993;28;20096;-76
2022/09/19 11:49:38;;;;;;;5.78;2.30;;;;;;;36.62;16.72;99487.31;5072610;28;20044;-76
2022/09/19 11:52:29;;;;;;;7.00;1.52;;;;;;;37.05;17.23;99483.88;5092589;28;20509;-75
2022/09/19 11:55:16;;;;;;;6.78;1.77;;;;;;;37.37;16.29;99489.66;5059593;28;20079;-76
2022/09/19 11:58:00;;;;;;;6.13;1.53;;;;;;;37.46;16.43;99472.31;5076000;28;20466;-77
2022/09/19 12:00:26;;;;;;;7.32;1.80;;;;;;;37.53;16.16;99478.38;5092185;28;20274;-75
2022/09/19 12:03:34;;;;;;;6.35;1.83;;;;;;;37.30;15.74;99480.84;5060088;28;20491;-76
2022/09/19 12:06:44;;;;;;;7.65;1.70;;;;;;;37.00;16.22;99492.31;5092228;28;20051;-75
2022/09/19 12:09:17;;;;;;;4.75;1.92;;;;;;;37.23;16.60;99480.34;5092156;28;20184;-76
2022/09/19 12:11:50;;;;;;;7.35;1.90;;;;;;;37.16;16.29;99479.88;5075513;28;20056;-76
2022/09/19 12:14:22;;;;;;;8.73;3.00;;;;;;;37.16;16.36;99475.16;5075038;28;20052;-75
2022/09/19 12:16:54;;;;;;;8.40;2.10;;;;;;;37.17;16.45;99481.56;5075114;28;20040;-76
2022/09/19 12:19:29;;;;;;;5.63;1.58;;;;;;;36.98;16.58;99478.69;5075539;28;20530;-76
2022/09/19 12:22:03;;;;;;;8.43;2.05;;;;;;;36.79;16.80;99475.75;5091928;28;20048;-76
2022/09/19 12:24:53;;;;;;;9.07;1.77;;;;;;;37.10;16.44;99467.13;5058977;28;20055;-75
2022/09/19 12:27:39;;;;;;;7.38;1.50;;;;;;;37.11;16.44;99482.72;5092686;28;20056;-76
2022/09/19 12:30:13;;;;;;;7.22;1.70;;;;;;;37.06;16.23;99482.78;5075502;28;20134;-75